sensor_id;sensor_type;location;lat;lon;timestamp;pressure;altitude;pressure_sealevel;temperature;humidity
85836;BME280;76292;47.678;19.066;2024-02-26T00:00:56;99328.50;;;8.72;93.76
85836;BME280;76292;47.678;19.066;2024-02-26T00:02:56;99324.16;;;8.76;94.35
85836;BME280;76292;47.678;19.066;2024-02-26T00:04:57;99329.84;;;8.69;94.00
85836;BME280;76292;47.678;19.066;2024-02-26T00:06:57;99328.22;;;8.68;94.13
85836;BME280;76292;47.678;19.066;2024-02-26T00:08:58;99327.75;;;8.76;93.98
85836;BME280;76292;47.678;19.066;2024-02-26T00:10:58;99318.63;;;8.71;94.23
85836;BME280;76292;47.678;19.066;2024-02-26T00:12:59;99326.88;;;8.71;94.55
85836;BME280;76292;47.678;19.066;2024-02-26T00:14:59;99321.97;;;8.78;94.23
85836;BME280;76292;47.678;19.066;2024-02-26T00:17:02;99312.09;;;8.77;94.17
85836;BME280;76292;47.678;19.066;2024-02-26T00:19:02;99309.28;;;8.72;94.26
85836;BME280;76292;47.678;19.066;2024-02-26T00:21:03;99298.88;;;8.74;94.60
85836;BME280;76292;47.678;19.066;2024-02-26T00:23:03;99315.34;;;8.74;94.16
85836;BME280;76292;47.678;19.066;2024-02-26T00:25:04;99303.84;;;8.77;94.16
85836;BME280;76292;47.678;19.066;2024-02-26T00:27:05;99309.00;;;8.68;94.49
85836;BME280;76292;47.678;19.066;2024-02-26T00:29:05;99312.03;;;8.72;94.79
85836;BME280;76292;47.678;19.066;2024-02-26T00:31:08;99306.63;;;8.82;94.39
85836;BME280;76292;47.678;19.066;2024-02-26T00:33:08;99310.47;;;8.81;94.35
85836;BME280;76292;47.678;19.066;2024-02-26T00:35:08;99309.63;;;8.80;94.35
85836;BME280;76292;47.678;19.066;2024-02-26T00:37:09;99315.34;;;8.74;94.32
85836;BME280;76292;47.678;19.066;2024-02-26T00:39:11;99314.31;;;8.80;94.47
85836;BME280;76292;47.678;19.066;2024-02-26T00:41:12;99303.84;;;8.77;94.23
85836;BME280;76292;47.678;19.066;2024-02-26T00:43:12;99307.88;;;8.69;94.16
85836;BME280;76292;47.678;19.066;2024-02-26T00:45:13;99306.53;;;8.72;94.60
85836;BME280;76292;47.678;19.066;2024-02-26T00:47:15;99298.63;;;8.80;94.26
85836;BME280;76292;47.678;19.066;2024-02-26T00:49:16;99307.47;;;8.82;94.53
85836;BME280;76292;47.678;19.066;2024-02-26T00:51:16;99297.28;;;8.83;94.81
85836;BME280;76292;47.678;19.066;2024-02-26T00:53:16;99299.47;;;8.81;94.66
85836;BME280;76292;47.678;19.066;2024-02-26T00:55:21;99305.28;;;8.84;94.70
85836;BME280;76292;47.678;19.066;2024-02-26T00:57:21;99297.81;;;8.80;94.73
85836;BME280;76292;47.678;19.066;2024-02-26T00:59:22;99304.88;;;8.71;94.16
85836;BME280;76292;47.678;19.066;2024-02-26T01:01:22;99297.28;;;8.83;94.75
85836;BME280;76292;47.678;19.066;2024-02-26T01:03:23;99292.59;;;8.83;94.52
85836;BME280;76292;47.678;19.066;2024-02-26T01:05:23;99298.28;;;8.72;94.56
85836;BME280;76292;47.678;19.066;2024-02-26T01:07:23;99285.06;;;8.68;94.95
85836;BME280;76292;47.678;19.066;2024-02-26T01:09:24;99286.72;;;8.70;94.86
85836;BME280;76292;47.678;19.066;2024-02-26T01:11:24;99298.56;;;8.70;94.86
85836;BME280;76292;47.678;19.066;2024-02-26T01:13:24;99281.78;;;8.72;94.78
85836;BME280;76292;47.678;19.066;2024-02-26T01:15:25;99281.50;;;8.68;94.82
85836;BME280;76292;47.678;19.066;2024-02-26T01:17:25;99284.78;;;8.65;94.87
85836;BME280;76292;47.678;19.066;2024-02-26T01:19:28;99285.53;;;8.60;95.40
85836;BME280;76292;47.678;19.066;2024-02-26T01:21:30;99281.72;;;8.61;95.12
85836;BME280;76292;47.678;19.066;2024-02-26T01:23:36;99267.66;;;8.58;94.92
85836;BME280;76292;47.678;19.066;2024-02-26T01:25:37;99286.06;;;8.57;94.98
85836;BME280;76292;47.678;19.066;2024-02-26T01:27:37;99263.84;;;8.59;95.27
85836;BME280;76292;47.678;19.066;2024-02-26T01:29:37;99271.81;;;8.60;94.99
85836;BME280;76292;47.678;19.066;2024-02-26T01:31:38;99261.09;;;8.59;95.34
85836;BME280;76292;47.678;19.066;2024-02-26T01:33:40;99274.56;;;8.60;95.24
85836;BME280;76292;47.678;19.066;2024-02-26T01:35:43;99271.78;;;8.55;95.47
85836;BME280;76292;47.678;19.066;2024-02-26T01:37:43;99271.25;;;8.58;95.44
85836;BME280;76292;47.678;19.066;2024-02-26T01:39:47;99268.28;;;8.65;95.38
85836;BME280;76292;47.678;19.066;2024-02-26T01:41:48;99271.56;;;8.62;95.36
85836;BME280;76292;47.678;19.066;2024-02-26T01:43:48;99275.38;;;8.61;95.01
85836;BME280;76292;47.678;19.066;2024-02-26T01:45:49;99259.53;;;8.68;95.19
85836;BME280;76292;47.678;19.066;2024-02-26T01:47:52;99265.31;;;8.72;95.16
85836;BME280;76292;47.678;19.066;2024-02-26T01:49:55;99267.84;;;8.78;94.75
85836;BME280;76292;47.678;19.066;2024-02-26T01:51:56;99269.22;;;8.81;94.56
85836;BME280;76292;47.678;19.066;2024-02-26T01:53:58;99270.56;;;8.73;94.72
85836;BME280;76292;47.678;19.066;2024-02-26T01:56:00;99275.00;;;8.79;94.50
85836;BME280;76292;47.678;19.066;2024-02-26T01:58:00;99274.06;;;8.68;94.36
85836;BME280;76292;47.678;19.066;2024-02-26T02:00:01;99265.59;;;8.70;94.88
85836;BME280;76292;47.678;19.066;2024-02-26T02:02:05;99264.53;;;8.76;94.56
85836;BME280;76292;47.678;19.066;2024-02-26T02:04:09;99270.56;;;8.73;94.42
85836;BME280;76292;47.678;19.066;2024-02-26T02:06:11;99276.56;;;8.70;94.35
85836;BME280;76292;47.678;19.066;2024-02-26T02:08:13;99273.16;;;8.58;95.12
85836;BME280;76292;47.678;19.066;2024-02-26T02:10:16;99275.16;;;8.62;95.15
85836;BME280;76292;47.678;19.066;2024-02-26T02:12:18;99270.16;;;8.59;95.42
85836;BME280;76292;47.678;19.066;2024-02-26T02:14:19;99266.84;;;8.57;95.22
85836;BME280;76292;47.678;19.066;2024-02-26T02:16:26;99268.84;;;8.67;95.04
85836;BME280;76292;47.678;19.066;2024-02-26T02:18:27;99269.34;;;8.59;94.93
85836;BME280;76292;47.678;19.066;2024-02-26T02:20:34;99267.63;;;8.53;95.30
85836;BME280;76292;47.678;19.066;2024-02-26T02:22:34;99271.03;;;8.65;95.44
85836;BME280;76292;47.678;19.066;2024-02-26T02:24:37;99272.03;;;8.54;95.13
85836;BME280;76292;47.678;19.066;2024-02-26T02:26:37;99278.88;;;8.51;95.34
85836;BME280;76292;47.678;19.066;2024-02-26T02:28:38;99272.66;;;8.61;95.44
85836;BME280;76292;47.678;19.066;2024-02-26T02:30:40;99275.06;;;8.57;95.42
85836;BME280;76292;47.678;19.066;2024-02-26T02:32:44;99264.59;;;8.54;94.80
85836;BME280;76292;47.678;19.066;2024-02-26T02:34:45;99270.63;;;8.51;94.58
85836;BME280;76292;47.678;19.066;2024-02-26T02:36:52;99269.31;;;8.54;95.11
85836;BME280;76292;47.678;19.066;2024-02-26T02:38:55;99273.44;;;8.56;95.14
85836;BME280;76292;47.678;19.066;2024-02-26T02:40:55;99272.56;;;8.51;95.05
85836;BME280;76292;47.678;19.066;2024-02-26T02:42:56;99276.34;;;8.45;95.07
85836;BME280;76292;47.678;19.066;2024-02-26T02:44:56;99279.63;;;8.42;95.35
85836;BME280;76292;47.678;19.066;2024-02-26T02:46:57;99276.31;;;8.40;95.85
85836;BME280;76292;47.678;19.066;2024-02-26T02:48:57;99277.13;;;8.40;95.77
85836;BME280;76292;47.678;19.066;2024-02-26T02:50:58;99277.44;;;8.44;95.94
85836;BME280;76292;47.678;19.066;2024-02-26T02:52:58;99268.31;;;8.38;95.43
85836;BME280;76292;47.678;19.066;2024-02-26T02:54:58;99267.78;;;8.41;95.40
85836;BME280;76292;47.678;19.066;2024-02-26T02:57:01;99268.88;;;8.40;95.30
85836;BME280;76292;47.678;19.066;2024-02-26T02:59:02;99270.00;;;8.39;95.54
85836;BME280;76292;47.678;19.066;2024-02-26T03:01:02;99265.25;;;8.35;95.48
85836;BME280;76292;47.678;19.066;2024-02-26T03:03:06;99262.22;;;8.31;95.49
85836;BME280;76292;47.678;19.066;2024-02-26T03:05:07;99261.63;;;8.29;95.80
85836;BME280;76292;47.678;19.066;2024-02-26T03:07:07;99269.63;;;8.31;95.98
85836;BME280;76292;47.678;19.066;2024-02-26T03:09:10;99266.88;;;8.31;95.71
85836;BME280;76292;47.678;19.066;2024-02-26T03:11:14;99264.66;;;8.28;95.71
85836;BME280;76292;47.678;19.066;2024-02-26T03:13:18;99265.50;;;8.28;95.79
85836;BME280;76292;47.678;19.066;2024-02-26T03:15:18;99271.78;;;8.29;95.62
85836;BME280;76292;47.678;19.066;2024-02-26T03:17:18;99270.16;;;8.28;95.83
85836;BME280;76292;47.678;19.066;2024-02-26T03:19:22;99270.34;;;8.26;95.72
85836;BME280;76292;47.678;19.066;2024-02-26T03:21:22;99266.28;;;8.29;95.89
85836;BME280;76292;47.678;19.066;2024-02-26T03:23:25;99261.94;;;8.33;95.85
85836;BME280;76292;47.678;19.066;2024-02-26T03:25:25;99266.59;;;8.32;95.58
85836;BME280;76292;47.678;19.066;2024-02-26T03:27:26;99271.03;;;8.33;96.20
85836;BME280;76292;47.678;19.066;2024-02-26T03:29:26;99263.50;;;8.50;95.98
85836;BME280;76292;47.678;19.066;2024-02-26T03:31:26;99264.09;;;8.57;95.68
85836;BME280;76292;47.678;19.066;2024-02-26T03:33:27;99267.84;;;8.46;95.73
85836;BME280;76292;47.678;19.066;2024-02-26T03:35:27;99261.75;;;8.39;95.52
85836;BME280;76292;47.678;19.066;2024-02-26T03:37:27;99257.97;;;8.45;95.82
85836;BME280;76292;47.678;19.066;2024-02-26T03:39:28;99262.06;;;8.43;95.68
85836;BME280;76292;47.678;19.066;2024-02-26T03:41:28;99259.00;;;8.39;95.68
85836;BME280;76292;47.678;19.066;2024-02-26T03:43:35;99262.97;;;8.53;95.68
85836;BME280;76292;47.678;19.066;2024-02-26T03:45:35;99254.50;;;8.60;95.33
85836;BME280;76292;47.678;19.066;2024-02-26T03:47:37;99249.31;;;8.63;95.14
85836;BME280;76292;47.678;19.066;2024-02-26T03:49:38;99255.91;;;8.62;95.18
85836;BME280;76292;47.678;19.066;2024-02-26T03:51:43;99259.75;;;8.61;95.02
85836;BME280;76292;47.678;19.066;2024-02-26T03:53:43;99257.56;;;8.63;95.13
85836;BME280;76292;47.678;19.066;2024-02-26T03:55:44;99255.31;;;8.60;94.99
85836;BME280;76292;47.678;19.066;2024-02-26T03:57:47;99246.00;;;8.61;94.86
85836;BME280;76292;47.678;19.066;2024-02-26T03:59:48;99254.44;;;8.55;95.10
85836;BME280;76292;47.678;19.066;2024-02-26T04:01:48;99239.28;;;8.47;95.16
85836;BME280;76292;47.678;19.066;2024-02-26T04:03:49;99234.31;;;8.44;95.09
85836;BME280;76292;47.678;19.066;2024-02-26T04:05:50;99238.66;;;8.40;95.38
85836;BME280;76292;47.678;19.066;2024-02-26T04:07:50;99244.16;;;8.40;95.46
85836;BME280;76292;47.678;19.066;2024-02-26T04:09:51;99241.88;;;8.32;95.71
85836;BME280;76292;47.678;19.066;2024-02-26T04:11:51;99244.06;;;8.30;95.96
85836;BME280;76292;47.678;19.066;2024-02-26T04:13:51;99252.03;;;8.32;96.12
85836;BME280;76292;47.678;19.066;2024-02-26T04:15:52;99247.75;;;8.41;95.84
85836;BME280;76292;47.678;19.066;2024-02-26T04:17:52;99249.94;;;8.39;95.46
85836;BME280;76292;47.678;19.066;2024-02-26T04:19:53;99259.88;;;8.45;95.81
85836;BME280;76292;47.678;19.066;2024-02-26T04:21:55;99249.88;;;8.34;95.39
85836;BME280;76292;47.678;19.066;2024-02-26T04:24:00;99256.72;;;8.31;95.81
85836;BME280;76292;47.678;19.066;2024-02-26T04:26:02;99261.63;;;8.29;95.81
85836;BME280;76292;47.678;19.066;2024-02-26T04:28:02;99264.38;;;8.29;95.50
85836;BME280;76292;47.678;19.066;2024-02-26T04:30:03;99264.88;;;8.26;95.82
85836;BME280;76292;47.678;19.066;2024-02-26T04:32:04;99259.38;;;8.26;95.31
85836;BME280;76292;47.678;19.066;2024-02-26T04:34:05;99254.41;;;8.23;95.63
85836;BME280;76292;47.678;19.066;2024-02-26T04:36:12;99255.00;;;8.25;95.88
85836;BME280;76292;47.678;19.066;2024-02-26T04:38:13;99248.38;;;8.26;95.88
85836;BME280;76292;47.678;19.066;2024-02-26T04:40:13;99249.75;;;8.24;95.98
85836;BME280;76292;47.678;19.066;2024-02-26T04:42:16;99243.59;;;8.38;96.08
85836;BME280;76292;47.678;19.066;2024-02-26T04:44:19;99251.88;;;8.43;95.68
85836;BME280;76292;47.678;19.066;2024-02-26T04:46:19;99237.88;;;8.40;95.71
85836;BME280;76292;47.678;19.066;2024-02-26T04:48:25;99241.16;;;8.42;95.42
85836;BME280;76292;47.678;19.066;2024-02-26T04:50:28;99242.16;;;8.31;95.60
85836;BME280;76292;47.678;19.066;2024-02-26T04:52:28;99237.88;;;8.40;95.51
85836;BME280;76292;47.678;19.066;2024-02-26T04:54:28;99239.78;;;8.39;95.34
85836;BME280;76292;47.678;19.066;2024-02-26T04:56:29;99243.56;;;8.33;95.17
85836;BME280;76292;47.678;19.066;2024-02-26T04:58:29;99242.16;;;8.31;95.38
85836;BME280;76292;47.678;19.066;2024-02-26T05:00:30;99240.28;;;8.36;95.39
85836;BME280;76292;47.678;19.066;2024-02-26T05:02:30;99241.41;;;8.40;95.17
85836;BME280;76292;47.678;19.066;2024-02-26T05:04:32;99244.16;;;8.40;94.89
85836;BME280;76292;47.678;19.066;2024-02-26T05:06:36;99235.91;;;8.40;95.03
85836;BME280;76292;47.678;19.066;2024-02-26T05:08:39;99226.88;;;8.40;95.12
85836;BME280;76292;47.678;19.066;2024-02-26T05:10:40;99215.56;;;8.36;94.86
85836;BME280;76292;47.678;19.066;2024-02-26T05:12:41;99222.94;;;8.31;94.99
85836;BME280;76292;47.678;19.066;2024-02-26T05:14:45;99233.94;;;8.31;95.15
85836;BME280;76292;47.678;19.066;2024-02-26T05:16:45;99233.66;;;8.32;95.09
85836;BME280;76292;47.678;19.066;2024-02-26T05:18:45;99232.56;;;8.33;95.36
85836;BME280;76292;47.678;19.066;2024-02-26T05:20:46;99228.47;;;8.36;95.02
85836;BME280;76292;47.678;19.066;2024-02-26T05:22:46;99230.38;;;8.35;94.86
85836;BME280;76292;47.678;19.066;2024-02-26T05:24:48;99239.72;;;8.34;94.97
85836;BME280;76292;47.678;19.066;2024-02-26T05:26:51;99232.03;;;8.31;94.87
85836;BME280;76292;47.678;19.066;2024-02-26T05:28:55;99229.28;;;8.31;95.43
85836;BME280;76292;47.678;19.066;2024-02-26T05:30:59;99234.16;;;8.29;95.27
85836;BME280;76292;47.678;19.066;2024-02-26T05:33:02;99238.47;;;8.20;95.36
85836;BME280;76292;47.678;19.066;2024-02-26T05:35:06;99233.75;;;8.16;95.74
85836;BME280;76292;47.678;19.066;2024-02-26T05:37:06;99231.91;;;8.26;95.72
85836;BME280;76292;47.678;19.066;2024-02-26T05:39:10;99227.59;;;8.30;95.19
85836;BME280;76292;47.678;19.066;2024-02-26T05:41:12;99227.50;;;8.20;95.35
85836;BME280;76292;47.678;19.066;2024-02-26T05:43:13;99238.47;;;8.20;95.47
85836;BME280;76292;47.678;19.066;2024-02-26T05:45:15;99245.59;;;8.21;95.80
85836;BME280;76292;47.678;19.066;2024-02-26T05:47:16;99245.34;;;8.23;95.73
85836;BME280;76292;47.678;19.066;2024-02-26T05:49:19;99247.50;;;8.21;95.53
85836;BME280;76292;47.678;19.066;2024-02-26T05:51:20;99243.97;;;8.20;95.63
85836;BME280;76292;47.678;19.066;2024-02-26T05:53:20;99249.00;;;8.28;95.64
85836;BME280;76292;47.678;19.066;2024-02-26T05:55:20;99245.63;;;8.26;95.29
85836;BME280;76292;47.678;19.066;2024-02-26T05:57:21;99247.34;;;8.27;95.76
85836;BME280;76292;47.678;19.066;2024-02-26T05:59:21;99243.34;;;8.40;95.72
85836;BME280;76292;47.678;19.066;2024-02-26T06:01:21;99243.88;;;8.37;95.32
85836;BME280;76292;47.678;19.066;2024-02-26T06:03:22;99243.34;;;8.40;95.33
85836;BME280;76292;47.678;19.066;2024-02-26T06:05:22;99232.88;;;8.37;95.16
85836;BME280;76292;47.678;19.066;2024-02-26T06:07:25;99238.66;;;8.40;95.29
85836;BME280;76292;47.678;19.066;2024-02-26T06:09:25;99232.66;;;8.43;95.10
85836;BME280;76292;47.678;19.066;2024-02-26T06:11:31;99233.84;;;8.52;95.09
85836;BME280;76292;47.678;19.066;2024-02-26T06:13:31;99248.72;;;8.56;94.87
85836;BME280;76292;47.678;19.066;2024-02-26T06:15:32;99246.00;;;8.61;94.50
85836;BME280;76292;47.678;19.066;2024-02-26T06:17:32;99255.41;;;8.65;94.53
85836;BME280;76292;47.678;19.066;2024-02-26T06:19:34;99251.84;;;8.70;94.66
85836;BME280;76292;47.678;19.066;2024-02-26T06:21:34;99260.69;;;8.77;93.65
85836;BME280;76292;47.678;19.066;2024-02-26T06:23:35;99258.06;;;8.92;93.69
85836;BME280;76292;47.678;19.066;2024-02-26T06:25:37;99255.59;;;8.91;93.85
85836;BME280;76292;47.678;19.066;2024-02-26T06:27:38;99250.41;;;8.99;93.26
85836;BME280;76292;47.678;19.066;2024-02-26T06:29:38;99257.34;;;9.07;92.49
85836;BME280;76292;47.678;19.066;2024-02-26T06:31:39;99260.59;;;8.99;92.72
85836;BME280;76292;47.678;19.066;2024-02-26T06:33:40;99270.56;;;9.10;92.90
85836;BME280;76292;47.678;19.066;2024-02-26T06:35:40;99267.28;;;9.13;92.54
85836;BME280;76292;47.678;19.066;2024-02-26T06:37:40;99276.59;;;9.12;92.64
85836;BME280;76292;47.678;19.066;2024-02-26T06:39:43;99272.75;;;9.08;93.51
85836;BME280;76292;47.678;19.066;2024-02-26T06:41:46;99278.81;;;9.10;93.69
85836;BME280;76292;47.678;19.066;2024-02-26T06:43:49;99280.25;;;9.22;93.22
85836;BME280;76292;47.678;19.066;2024-02-26T06:45:49;99280.78;;;9.19;93.13
85836;BME280;76292;47.678;19.066;2024-02-26T06:47:53;99271.66;;;9.14;93.66
85836;BME280;76292;47.678;19.066;2024-02-26T06:49:56;99273.59;;;9.13;93.79
85836;BME280;76292;47.678;19.066;2024-02-26T06:52:00;99273.16;;;9.32;93.29
85836;BME280;76292;47.678;19.066;2024-02-26T06:54:03;99265.22;;;9.35;92.52
85836;BME280;76292;47.678;19.066;2024-02-26T06:56:04;99273.69;;;9.29;92.96
85836;BME280;76292;47.678;19.066;2024-02-26T06:58:04;99262.44;;;9.35;92.48
85836;BME280;76292;47.678;19.066;2024-02-26T07:00:05;99256.97;;;9.40;92.13
85836;BME280;76292;47.678;19.066;2024-02-26T07:02:08;99258.41;;;9.48;92.21
85836;BME280;76292;47.678;19.066;2024-02-26T07:04:10;99261.44;;;9.51;92.18
85836;BME280;76292;47.678;19.066;2024-02-26T07:06:13;99263.94;;;9.53;92.42
85836;BME280;76292;47.678;19.066;2024-02-26T07:08:14;99257.31;;;9.54;91.55
85836;BME280;76292;47.678;19.066;2024-02-26T07:10:14;99262.59;;;9.65;91.67
85836;BME280;76292;47.678;19.066;2024-02-26T07:12:15;99273.66;;;9.70;91.44
85836;BME280;76292;47.678;19.066;2024-02-26T07:14:16;99274.44;;;9.66;91.59
85836;BME280;76292;47.678;19.066;2024-02-26T07:16:16;99280.25;;;9.69;91.72
85836;BME280;76292;47.678;19.066;2024-02-26T07:18:16;99273.13;;;9.78;91.06
85836;BME280;76292;47.678;19.066;2024-02-26T07:20:17;99273.13;;;9.83;89.39
85836;BME280;76292;47.678;19.066;2024-02-26T07:22:19;99274.81;;;9.90;90.45
85836;BME280;76292;47.678;19.066;2024-02-26T07:24:19;99278.66;;;9.89;91.07
85836;BME280;76292;47.678;19.066;2024-02-26T07:26:20;99280.63;;;10.03;90.25
85836;BME280;76292;47.678;19.066;2024-02-26T07:28:20;99282.31;;;10.04;90.50
85836;BME280;76292;47.678;19.066;2024-02-26T07:30:21;99274.88;;;10.10;90.13
85836;BME280;76292;47.678;19.066;2024-02-26T07:32:24;99277.41;;;10.16;90.32
85836;BME280;76292;47.678;19.066;2024-02-26T07:34:25;99269.63;;;10.08;90.03
85836;BME280;76292;47.678;19.066;2024-02-26T07:36:29;99279.56;;;10.04;89.31
85836;BME280;76292;47.678;19.066;2024-02-26T07:38:29;99279.81;;;10.08;90.84
85836;BME280;76292;47.678;19.066;2024-02-26T07:40:34;99275.75;;;10.20;89.85
85836;BME280;76292;47.678;19.066;2024-02-26T07:42:35;99274.69;;;10.21;90.08
85836;BME280;76292;47.678;19.066;2024-02-26T07:44:35;99276.91;;;10.34;90.26
85836;BME280;76292;47.678;19.066;2024-02-26T07:46:35;99282.69;;;10.48;88.87
85836;BME280;76292;47.678;19.066;2024-02-26T07:48:35;99284.91;;;10.51;89.19
85836;BME280;76292;47.678;19.066;2024-02-26T07:50:36;99286.31;;;10.64;86.83
85836;BME280;76292;47.678;19.066;2024-02-26T07:52:36;99288.78;;;10.80;86.75
85836;BME280;76292;47.678;19.066;2024-02-26T07:54:36;99289.34;;;10.77;86.99
85836;BME280;76292;47.678;19.066;2024-02-26T07:56:37;99294.84;;;10.82;86.22
85836;BME280;76292;47.678;19.066;2024-02-26T07:58:38;99292.66;;;11.15;85.90
85836;BME280;76292;47.678;19.066;2024-02-26T08:00:38;99290.94;;;11.39;84.78
85836;BME280;76292;47.678;19.066;2024-02-26T08:02:38;99294.81;;;11.43;84.78
85836;BME280;76292;47.678;19.066;2024-02-26T08:04:39;99297.00;;;11.36;84.43
85836;BME280;76292;47.678;19.066;2024-02-26T08:06:39;99308.38;;;11.14;85.31
85836;BME280;76292;47.678;19.066;2024-02-26T08:08:39;99311.38;;;11.08;86.25
85836;BME280;76292;47.678;19.066;2024-02-26T08:10:40;99308.09;;;11.21;85.88
85836;BME280;76292;47.678;19.066;2024-02-26T08:12:45;99306.41;;;11.10;85.31
85836;BME280;76292;47.678;19.066;2024-02-26T08:14:50;99308.91;;;11.26;85.17
85836;BME280;76292;47.678;19.066;2024-02-26T08:16:51;99305.28;;;11.46;83.60
85836;BME280;76292;47.678;19.066;2024-02-26T08:18:51;99309.19;;;11.20;83.65
85836;BME280;76292;47.678;19.066;2024-02-26T08:20:52;99306.34;;;11.50;82.94
85836;BME280;76292;47.678;19.066;2024-02-26T08:22:52;99306.34;;;11.50;83.20
85836;BME280;76292;47.678;19.066;2024-02-26T08:24:53;99311.38;;;11.23;84.36
85836;BME280;76292;47.678;19.066;2024-02-26T08:26:54;99302.22;;;11.47;82.54
85836;BME280;76292;47.678;19.066;2024-02-26T08:28:54;99319.09;;;11.36;84.35
85836;BME280;76292;47.678;19.066;2024-02-26T08:30:55;99309.41;;;11.38;85.01
85836;BME280;76292;47.678;19.066;2024-02-26T08:32:56;99305.78;;;11.58;83.33
85836;BME280;76292;47.678;19.066;2024-02-26T08:34:56;99304.66;;;11.64;82.56
85836;BME280;76292;47.678;19.066;2024-02-26T08:36:57;99307.69;;;11.83;83.05
85836;BME280;76292;47.678;19.066;2024-02-26T08:38:57;99303.94;;;12.23;81.63
85836;BME280;76292;47.678;19.066;2024-02-26T08:41:00;99301.88;;;12.82;79.52
85836;BME280;76292;47.678;19.066;2024-02-26T08:43:02;99295.25;;;12.78;77.76
85836;BME280;76292;47.678;19.066;2024-02-26T08:45:03;99300.94;;;12.58;77.91
85836;BME280;76292;47.678;19.066;2024-02-26T08:47:03;99300.53;;;12.80;77.53
85836;BME280;76292;47.678;19.066;2024-02-26T08:49:06;99300.09;;;12.57;78.33
85836;BME280;76292;47.678;19.066;2024-02-26T08:51:07;99293.56;;;12.43;80.30
85836;BME280;76292;47.678;19.066;2024-02-26T08:53:08;99301.44;;;12.21;79.49
85836;BME280;76292;47.678;19.066;2024-02-26T08:55:08;99306.13;;;12.21;81.15
85836;BME280;76292;47.678;19.066;2024-02-26T08:57:09;99306.22;;;12.05;82.04
85836;BME280;76292;47.678;19.066;2024-02-26T08:59:12;99306.47;;;12.14;81.22
85836;BME280;76292;47.678;19.066;2024-02-26T09:01:12;99312.56;;;12.11;82.08
85836;BME280;76292;47.678;19.066;2024-02-26T09:03:13;99309.13;;;12.29;82.54
85836;BME280;76292;47.678;19.066;2024-02-26T09:05:13;99309.47;;;12.13;80.50
85836;BME280;76292;47.678;19.066;2024-02-26T09:07:13;99312.81;;;12.09;81.00
85836;BME280;76292;47.678;19.066;2024-02-26T09:09:17;99317.28;;;12.05;81.89
85836;BME280;76292;47.678;19.066;2024-02-26T09:11:17;99316.72;;;11.98;81.85
85836;BME280;76292;47.678;19.066;2024-02-26T09:13:17;99320.88;;;12.06;81.76
85836;BME280;76292;47.678;19.066;2024-02-26T09:15:18;99316.47;;;11.95;80.82
85836;BME280;76292;47.678;19.066;2024-02-26T09:17:19;99316.16;;;12.01;82.26
85836;BME280;76292;47.678;19.066;2024-02-26T09:19:23;99320.31;;;12.04;81.25
85836;BME280;76292;47.678;19.066;2024-02-26T09:21:23;99315.63;;;11.99;82.16
85836;BME280;76292;47.678;19.066;2024-02-26T09:23:24;99322.41;;;12.27;81.87
85836;BME280;76292;47.678;19.066;2024-02-26T09:25:25;99312.81;;;12.58;80.61
85836;BME280;76292;47.678;19.066;2024-02-26T09:27:25;99323.19;;;12.82;79.11
85836;BME280;76292;47.678;19.066;2024-02-26T09:29:26;99319.31;;;12.78;78.68
85836;BME280;76292;47.678;19.066;2024-02-26T09:31:26;99324.78;;;12.88;79.57
85836;BME280;76292;47.678;19.066;2024-02-26T09:33:29;99324.69;;;12.98;79.39
85836;BME280;76292;47.678;19.066;2024-02-26T09:35:32;99325.91;;;12.87;79.33
85836;BME280;76292;47.678;19.066;2024-02-26T09:37:33;99323.84;;;13.02;78.83
85836;BME280;76292;47.678;19.066;2024-02-26T09:39:35;99327.69;;;13.06;78.53
85836;BME280;76292;47.678;19.066;2024-02-26T09:41:37;99333.19;;;13.16;77.19
85836;BME280;76292;47.678;19.066;2024-02-26T09:43:43;99331.03;;;13.03;78.19
85836;BME280;76292;47.678;19.066;2024-02-26T09:45:44;99333.25;;;13.01;77.12
85836;BME280;76292;47.678;19.066;2024-02-26T09:47:45;99341.38;;;13.27;77.85
85836;BME280;76292;47.678;19.066;2024-02-26T09:49:48;99339.25;;;13.47;76.63
85836;BME280;76292;47.678;19.066;2024-02-26T09:51:49;99328.38;;;13.56;75.66
85836;BME280;76292;47.678;19.066;2024-02-26T09:53:54;99335.34;;;13.77;75.77
85836;BME280;76292;47.678;19.066;2024-02-26T09:55:55;99329.69;;;13.87;74.75
85836;BME280;76292;47.678;19.066;2024-02-26T09:57:58;99331.09;;;14.08;74.67
85836;BME280;76292;47.678;19.066;2024-02-26T10:00:02;99328.94;;;13.81;74.22
85836;BME280;76292;47.678;19.066;2024-02-26T10:02:08;99329.44;;;13.83;74.22
85836;BME280;76292;47.678;19.066;2024-02-26T10:04:10;99331.22;;;13.98;73.80
85836;BME280;76292;47.678;19.066;2024-02-26T10:06:11;99338.00;;;13.87;76.20
85836;BME280;76292;47.678;19.066;2024-02-26T10:08:16;99329.81;;;14.01;75.16
85836;BME280;76292;47.678;19.066;2024-02-26T10:10:19;99333.69;;;13.76;75.01
85836;BME280;76292;47.678;19.066;2024-02-26T10:12:19;99327.09;;;13.96;75.03
85836;BME280;76292;47.678;19.066;2024-02-26T10:14:20;99326.63;;;13.89;74.67
85836;BME280;76292;47.678;19.066;2024-02-26T10:16:24;99323.78;;;13.70;73.37
85836;BME280;76292;47.678;19.066;2024-02-26T10:18:26;99322.84;;;13.56;74.67
85836;BME280;76292;47.678;19.066;2024-02-26T10:20:27;99327.78;;;13.59;75.40
85836;BME280;76292;47.678;19.066;2024-02-26T10:22:28;99327.00;;;13.82;74.56
85836;BME280;76292;47.678;19.066;2024-02-26T10:24:29;99329.19;;;13.80;75.78
85836;BME280;76292;47.678;19.066;2024-02-26T10:26:32;99328.13;;;13.52;75.47
85836;BME280;76292;47.678;19.066;2024-02-26T10:28:34;99317.53;;;13.31;75.14
85836;BME280;76292;47.678;19.066;2024-02-26T10:30:36;99331.09;;;13.32;77.18
85836;BME280;76292;47.678;19.066;2024-02-26T10:32:40;99322.47;;;13.62;74.47
85836;BME280;76292;47.678;19.066;2024-02-26T10:34:40;99318.72;;;13.77;74.92
85836;BME280;76292;47.678;19.066;2024-02-26T10:36:42;99315.66;;;13.78;76.51
85836;BME280;76292;47.678;19.066;2024-02-26T10:38:44;99320.84;;;13.85;75.68
85836;BME280;76292;47.678;19.066;2024-02-26T10:40:44;99316.28;;;14.18;73.18